sensor_id;sensor_type;location;lat;lon;timestamp;P1;durP1;ratioP1;P2;durP2;ratioP2
25069;SDS011;13064;48.162;11.536;2023-05-19T00:00:34;10.60;;;4.28;;
25069;SDS011;13064;48.162;11.536;2023-05-19T00:03:02;9.40;;;3.97;;
25069;SDS011;13064;48.162;11.536;2023-05-19T00:05:30;9.13;;;4.03;;
25069;SDS011;13064;48.162;11.536;2023-05-19T00:08:00;8.57;;;3.80;;
25069;SDS011;13064;48.162;11.536;2023-05-19T00:10:28;9.98;;;4.15;;
25069;SDS011;13064;48.162;11.536;2023-05-19T00:12:57;12.73;;;4.30;;
25069;SDS011;13064;48.162;11.536;2023-05-19T00:15:25;10.48;;;4.63;;
25069;SDS011;13064;48.162;11.536;2023-05-19T00:17:53;11.60;;;4.15;;
25069;SDS011;13064;48.162;11.536;2023-05-19T00:20:21;11.70;;;4.05;;
25069;SDS011;13064;48.162;11.536;2023-05-19T00:22:48;13.15;;;4.38;;
25069;SDS011;13064;48.162;11.536;2023-05-19T00:25:17;8.75;;;4.18;;
25069;SDS011;13064;48.162;11.536;2023-05-19T00:27:44;12.88;;;3.90;;
25069;SDS011;13064;48.162;11.536;2023-05-19T00:30:12;11.25;;;4.45;;
25069;SDS011;13064;48.162;11.536;2023-05-19T00:32:40;11.65;;;4.20;;
25069;SDS011;13064;48.162;11.536;2023-05-19T00:35:07;14.13;;;4.40;;
25069;SDS011;13064;48.162;11.536;2023-05-19T00:37:36;11.93;;;3.95;;
25069;SDS011;13064;48.162;11.536;2023-05-19T00:40:04;10.95;;;4.10;;
25069;SDS011;13064;48.162;11.536;2023-05-19T00:42:32;8.68;;;3.95;;
25069;SDS011;13064;48.162;11.536;2023-05-19T00:45:00;18.45;;;4.47;;
25069;SDS011;13064;48.162;11.536;2023-05-19T00:47:28;14.68;;;4.05;;
25069;SDS011;13064;48.162;11.536;2023-05-19T00:49:55;7.32;;;3.67;;
25069;SDS011;13064;48.162;11.536;2023-05-19T00:52:23;11.75;;;4.20;;
25069;SDS011;13064;48.162;11.536;2023-05-19T00:54:52;10.75;;;4.18;;
25069;SDS011;13064;48.162;11.536;2023-05-19T00:57:21;11.35;;;4.20;;
25069;SDS011;13064;48.162;11.536;2023-05-19T00:59:49;15.13;;;4.57;;
25069;SDS011;13064;48.162;11.536;2023-05-19T01:02:16;11.00;;;4.10;;
25069;SDS011;13064;48.162;11.536;2023-05-19T01:04:44;13.18;;;4.10;;
25069;SDS011;13064;48.162;11.536;2023-05-19T01:07:13;12.00;;;4.50;;
25069;SDS011;13064;48.162;11.536;2023-05-19T01:09:41;9.20;;;3.80;;
25069;SDS011;13064;48.162;11.536;2023-05-19T01:12:10;14.63;;;4.43;;
25069;SDS011;13064;48.162;11.536;2023-05-19T01:14:38;10.23;;;4.07;;
25069;SDS011;13064;48.162;11.536;2023-05-19T01:17:18;13.32;;;3.85;;
25069;SDS011;13064;48.162;11.536;2023-05-19T01:19:55;12.95;;;4.18;;
25069;SDS011;13064;48.162;11.536;2023-05-19T01:22:48;7.65;;;3.75;;
25069;SDS011;13064;48.162;11.536;2023-05-19T01:28:15;12.50;;;4.45;;
25069;SDS011;13064;48.162;11.536;2023-05-19T01:30:53;10.38;;;4.47;;
25069;SDS011;13064;48.162;11.536;2023-05-19T01:33:21;8.52;;;3.70;;
25069;SDS011;13064;48.162;11.536;2023-05-19T01:35:50;9.70;;;3.92;;
25069;SDS011;13064;48.162;11.536;2023-05-19T01:38:18;11.65;;;4.43;;
25069;SDS011;13064;48.162;11.536;2023-05-19T01:40:47;11.32;;;4.07;;
25069;SDS011;13064;48.162;11.536;2023-05-19T01:43:18;7.50;;;3.78;;
25069;SDS011;13064;48.162;11.536;2023-05-19T01:45:46;13.43;;;3.97;;
25069;SDS011;13064;48.162;11.536;2023-05-19T01:48:15;8.23;;;4.13;;
25069;SDS011;13064;48.162;11.536;2023-05-19T01:50:44;12.38;;;4.15;;
25069;SDS011;13064;48.162;11.536;2023-05-19T01:53:12;11.43;;;4.50;;
25069;SDS011;13064;48.162;11.536;2023-05-19T01:55:46;10.23;;;4.32;;
25069;SDS011;13064;48.162;11.536;2023-05-19T02:03:29;13.03;;;4.80;;
25069;SDS011;13064;48.162;11.536;2023-05-19T02:06:07;12.32;;;4.63;;
25069;SDS011;13064;48.162;11.536;2023-05-19T02:08:46;8.25;;;4.18;;
25069;SDS011;13064;48.162;11.536;2023-05-19T02:11:21;9.45;;;4.40;;
25069;SDS011;13064;48.162;11.536;2023-05-19T02:13:52;12.52;;;4.53;;
25069;SDS011;13064;48.162;11.536;2023-05-19T02:16:26;13.73;;;4.60;;
25069;SDS011;13064;48.162;11.536;2023-05-19T02:18:54;13.30;;;4.43;;
25069;SDS011;13064;48.162;11.536;2023-05-19T02:21:22;11.55;;;4.45;;
25069;SDS011;13064;48.162;11.536;2023-05-19T02:23:50;12.13;;;4.57;;
25069;SDS011;13064;48.162;11.536;2023-05-19T02:26:18;10.18;;;4.20;;
25069;SDS011;13064;48.162;11.536;2023-05-19T02:28:48;8.80;;;4.18;;
25069;SDS011;13064;48.162;11.536;2023-05-19T02:31:16;10.65;;;4.13;;
25069;SDS011;13064;48.162;11.536;2023-05-19T02:33:44;11.77;;;4.28;;
25069;SDS011;13064;48.162;11.536;2023-05-19T02:36:12;12.32;;;4.97;;
25069;SDS011;13064;48.162;11.536;2023-05-19T02:38:40;12.10;;;4.75;;
25069;SDS011;13064;48.162;11.536;2023-05-19T02:41:07;7.47;;;3.78;;
25069;SDS011;13064;48.162;11.536;2023-05-19T02:43:35;11.80;;;4.05;;
25069;SDS011;13064;48.162;11.536;2023-05-19T02:46:03;11.23;;;4.60;;
25069;SDS011;13064;48.162;11.536;2023-05-19T02:48:30;8.52;;;4.35;;
25069;SDS011;13064;48.162;11.536;2023-05-19T02:50:58;11.27;;;4.22;;
25069;SDS011;13064;48.162;11.536;2023-05-19T02:53:26;12.57;;;4.63;;
25069;SDS011;13064;48.162;11.536;2023-05-19T02:55:53;9.25;;;4.50;;
25069;SDS011;13064;48.162;11.536;2023-05-19T02:58:21;9.73;;;4.55;;
25069;SDS011;13064;48.162;11.536;2023-05-19T03:00:49;9.82;;;4.60;;
25069;SDS011;13064;48.162;11.536;2023-05-19T03:03:17;9.48;;;4.68;;
25069;SDS011;13064;48.162;11.536;2023-05-19T03:05:45;12.90;;;4.63;;
25069;SDS011;13064;48.162;11.536;2023-05-19T03:08:13;10.88;;;5.03;;
25069;SDS011;13064;48.162;11.536;2023-05-19T03:10:41;8.90;;;4.22;;
25069;SDS011;13064;48.162;11.536;2023-05-19T03:13:08;10.77;;;4.60;;
25069;SDS011;13064;48.162;11.536;2023-05-19T03:15:37;11.80;;;4.43;;
25069;SDS011;13064;48.162;11.536;2023-05-19T03:18:04;11.18;;;4.35;;
25069;SDS011;13064;48.162;11.536;2023-05-19T03:20:32;15.55;;;4.63;;
25069;SDS011;13064;48.162;11.536;2023-05-19T03:23:00;13.88;;;5.07;;
25069;SDS011;13064;48.162;11.536;2023-05-19T03:25:27;10.75;;;4.65;;
25069;SDS011;13064;48.162;11.536;2023-05-19T03:27:55;11.52;;;4.28;;
25069;SDS011;13064;48.162;11.536;2023-05-19T03:30:23;9.23;;;4.28;;
25069;SDS011;13064;48.162;11.536;2023-05-19T03:33:07;9.32;;;4.40;;
25069;SDS011;13064;48.162;11.536;2023-05-19T03:35:35;9.63;;;4.43;;
25069;SDS011;13064;48.162;11.536;2023-05-19T03:38:03;11.38;;;4.80;;
25069;SDS011;13064;48.162;11.536;2023-05-19T03:40:31;12.57;;;4.55;;
25069;SDS011;13064;48.162;11.536;2023-05-19T03:43:04;10.85;;;4.82;;
25069;SDS011;13064;48.162;11.536;2023-05-19T03:45:36;12.57;;;4.47;;
25069;SDS011;13064;48.162;11.536;2023-05-19T03:48:20;10.68;;;4.55;;
25069;SDS011;13064;48.162;11.536;2023-05-19T03:51:06;9.63;;;4.50;;
25069;SDS011;13064;48.162;11.536;2023-05-19T03:53:34;11.45;;;5.38;;
25069;SDS011;13064;48.162;11.536;2023-05-19T03:56:02;9.90;;;4.47;;
25069;SDS011;13064;48.162;11.536;2023-05-19T03:58:31;9.85;;;5.05;;
25069;SDS011;13064;48.162;11.536;2023-05-19T04:00:59;10.85;;;4.47;;
25069;SDS011;13064;48.162;11.536;2023-05-19T04:03:26;9.70;;;4.35;;
25069;SDS011;13064;48.162;11.536;2023-05-19T04:05:54;15.35;;;5.00;;
25069;SDS011;13064;48.162;11.536;2023-05-19T04:08:22;9.15;;;4.78;;
25069;SDS011;13064;48.162;11.536;2023-05-19T04:10:49;9.23;;;4.55;;
25069;SDS011;13064;48.162;11.536;2023-05-19T04:13:17;9.00;;;4.38;;
25069;SDS011;13064;48.162;11.536;2023-05-19T04:15:44;11.80;;;4.93;;
25069;SDS011;13064;48.162;11.536;2023-05-19T04:18:12;16.35;;;4.43;;
25069;SDS011;13064;48.162;11.536;2023-05-19T04:20:40;11.43;;;4.65;;
25069;SDS011;13064;48.162;11.536;2023-05-19T04:23:07;14.48;;;4.60;;
25069;SDS011;13064;48.162;11.536;2023-05-19T04:25:36;16.27;;;4.43;;
25069;SDS011;13064;48.162;11.536;2023-05-19T04:28:06;12.82;;;4.70;;
25069;SDS011;13064;48.162;11.536;2023-05-19T04:30:34;15.32;;;5.32;;
25069;SDS011;13064;48.162;11.536;2023-05-19T04:33:02;14.82;;;4.80;;
25069;SDS011;13064;48.162;11.536;2023-05-19T04:35:30;8.95;;;4.93;;
25069;SDS011;13064;48.162;11.536;2023-05-19T04:38:00;9.55;;;4.78;;
25069;SDS011;13064;48.162;11.536;2023-05-19T04:40:30;10.93;;;4.90;;
25069;SDS011;13064;48.162;11.536;2023-05-19T04:42:58;8.77;;;4.30;;
25069;SDS011;13064;48.162;11.536;2023-05-19T04:45:28;9.95;;;4.45;;
25069;SDS011;13064;48.162;11.536;2023-05-19T04:48:00;11.63;;;4.72;;
25069;SDS011;13064;48.162;11.536;2023-05-19T04:50:28;11.27;;;4.38;;
25069;SDS011;13064;48.162;11.536;2023-05-19T04:52:58;8.13;;;4.50;;
25069;SDS011;13064;48.162;11.536;2023-05-19T04:55:26;7.70;;;4.18;;
25069;SDS011;13064;48.162;11.536;2023-05-19T04:57:54;9.98;;;4.80;;
25069;SDS011;13064;48.162;11.536;2023-05-19T05:00:22;7.72;;;4.85;;
25069;SDS011;13064;48.162;11.536;2023-05-19T05:02:56;9.80;;;4.90;;
25069;SDS011;13064;48.162;11.536;2023-05-19T05:05:26;12.10;;;4.90;;
25069;SDS011;13064;48.162;11.536;2023-05-19T05:07:54;10.35;;;4.70;;
25069;SDS011;13064;48.162;11.536;2023-05-19T05:10:25;8.45;;;4.28;;
25069;SDS011;13064;48.162;11.536;2023-05-19T05:12:53;12.63;;;5.25;;
25069;SDS011;13064;48.162;11.536;2023-05-19T05:15:21;12.18;;;5.25;;
25069;SDS011;13064;48.162;11.536;2023-05-19T05:17:50;17.23;;;5.10;;
25069;SDS011;13064;48.162;11.536;2023-05-19T05:20:19;10.80;;;4.68;;
25069;SDS011;13064;48.162;11.536;2023-05-19T05:22:46;12.40;;;5.18;;
25069;SDS011;13064;48.162;11.536;2023-05-19T05:25:15;9.60;;;4.70;;
25069;SDS011;13064;48.162;11.536;2023-05-19T05:27:43;10.73;;;4.68;;
25069;SDS011;13064;48.162;11.536;2023-05-19T05:30:12;12.48;;;4.57;;
25069;SDS011;13064;48.162;11.536;2023-05-19T05:32:40;10.65;;;4.80;;
25069;SDS011;13064;48.162;11.536;2023-05-19T05:35:17;11.52;;;4.95;;
25069;SDS011;13064;48.162;11.536;2023-05-19T05:37:48;8.93;;;4.82;;
25069;SDS011;13064;48.162;11.536;2023-05-19T05:40:16;10.70;;;4.35;;
25069;SDS011;13064;48.162;11.536;2023-05-19T05:42:43;11.80;;;5.25;;
25069;SDS011;13064;48.162;11.536;2023-05-19T05:45:12;12.93;;;4.78;;
25069;SDS011;13064;48.162;11.536;2023-05-19T05:47:40;13.35;;;4.50;;
25069;SDS011;13064;48.162;11.536;2023-05-19T05:50:08;13.20;;;5.20;;
25069;SDS011;13064;48.162;11.536;2023-05-19T05:52:36;12.90;;;5.65;;
25069;SDS011;13064;48.162;11.536;2023-05-19T05:55:04;11.55;;;5.10;;
25069;SDS011;13064;48.162;11.536;2023-05-19T05:57:33;13.02;;;4.97;;
25069;SDS011;13064;48.162;11.536;2023-05-19T06:00:03;13.60;;;4.60;;
25069;SDS011;13064;48.162;11.536;2023-05-19T06:02:44;12.05;;;4.80;;
25069;SDS011;13064;48.162;11.536;2023-05-19T06:05:17;13.80;;;5.15;;
25069;SDS011;13064;48.162;11.536;2023-05-19T06:07:46;10.88;;;4.82;;
25069;SDS011;13064;48.162;11.536;2023-05-19T06:10:20;11.60;;;4.55;;
25069;SDS011;13064;48.162;11.536;2023-05-19T06:12:49;8.18;;;4.10;;
25069;SDS011;13064;48.162;11.536;2023-05-19T06:15:17;12.93;;;5.00;;
25069;SDS011;13064;48.162;11.536;2023-05-19T06:18:11;11.60;;;4.60;;
25069;SDS011;13064;48.162;11.536;2023-05-19T06:20:39;13.52;;;4.53;;
25069;SDS011;13064;48.162;11.536;2023-05-19T06:23:06;9.50;;;4.25;;
25069;SDS011;13064;48.162;11.536;2023-05-19T06:25:34;10.38;;;4.60;;
25069;SDS011;13064;48.162;11.536;2023-05-19T06:28:02;9.68;;;4.40;;
25069;SDS011;13064;48.162;11.536;2023-05-19T06:30:30;10.65;;;4.50;;
25069;SDS011;13064;48.162;11.536;2023-05-19T06:33:13;9.93;;;4.22;;
25069;SDS011;13064;48.162;11.536;2023-05-19T06:35:41;9.80;;;4.88;;
25069;SDS011;13064;48.162;11.536;2023-05-19T06:38:09;8.52;;;4.40;;
25069;SDS011;13064;48.162;11.536;2023-05-19T06:40:36;10.00;;;4.45;;
25069;SDS011;13064;48.162;11.536;2023-05-19T06:43:04;10.18;;;4.15;;
25069;SDS011;13064;48.162;11.536;2023-05-19T06:45:52;12.10;;;4.85;;
25069;SDS011;13064;48.162;11.536;2023-05-19T06:48:21;9.70;;;4.57;;
25069;SDS011;13064;48.162;11.536;2023-05-19T06:50:49;11.65;;;4.10;;
25069;SDS011;13064;48.162;11.536;2023-05-19T06:53:18;8.73;;;4.07;;
25069;SDS011;13064;48.162;11.536;2023-05-19T06:55:50;10.18;;;4.22;;
25069;SDS011;13064;48.162;11.536;2023-05-19T06:58:28;8.25;;;4.45;;
25069;SDS011;13064;48.162;11.536;2023-05-19T07:00:58;12.93;;;4.15;;
25069;SDS011;13064;48.162;11.536;2023-05-19T07:03:30;9.05;;;4.15;;
25069;SDS011;13064;48.162;11.536;2023-05-19T07:05:58;6.75;;;4.00;;
25069;SDS011;13064;48.162;11.536;2023-05-19T07:08:27;6.80;;;3.65;;
25069;SDS011;13064;48.162;11.536;2023-05-19T07:10:56;10.02;;;4.25;;
25069;SDS011;13064;48.162;11.536;2023-05-19T07:13:23;9.15;;;4.38;;
25069;SDS011;13064;48.162;11.536;2023-05-19T07:15:54;8.10;;;4.33;;
25069;SDS011;13064;48.162;11.536;2023-05-19T07:18:23;7.90;;;4.07;;
25069;SDS011;13064;48.162;11.536;2023-05-19T07:20:51;8.07;;;4.07;;
25069;SDS011;13064;48.162;11.536;2023-05-19T07:23:19;9.07;;;4.03;;
25069;SDS011;13064;48.162;11.536;2023-05-19T07:25:47;7.03;;;3.67;;
25069;SDS011;13064;48.162;11.536;2023-05-19T07:28:15;7.90;;;4.45;;
25069;SDS011;13064;48.162;11.536;2023-05-19T07:30:42;8.88;;;4.03;;
25069;SDS011;13064;48.162;11.536;2023-05-19T07:33:10;6.00;;;3.72;;
25069;SDS011;13064;48.162;11.536;2023-05-19T07:35:38;6.95;;;3.90;;
25069;SDS011;13064;48.162;11.536;2023-05-19T07:38:06;11.80;;;4.18;;
25069;SDS011;13064;48.162;11.536;2023-05-19T07:40:33;9.63;;;4.40;;
25069;SDS011;13064;48.162;11.536;2023-05-19T07:43:01;7.78;;;4.28;;
25069;SDS011;13064;48.162;11.536;2023-05-19T07:45:28;9.07;;;4.65;;
25069;SDS011;13064;48.162;11.536;2023-05-19T07:47:56;9.35;;;4.43;;
25069;SDS011;13064;48.162;11.536;2023-05-19T07:50:24;8.90;;;4.93;;
25069;SDS011;13064;48.162;11.536;2023-05-19T07:52:52;9.05;;;4.25;;
25069;SDS011;13064;48.162;11.536;2023-05-19T07:55:20;9.15;;;4.53;;
25069;SDS011;13064;48.162;11.536;2023-05-19T07:57:49;9.80;;;4.38;;
25069;SDS011;13064;48.162;11.536;2023-05-19T08:00:17;11.40;;;5.68;;
25069;SDS011;13064;48.162;11.536;2023-05-19T08:02:44;8.23;;;4.88;;
25069;SDS011;13064;48.162;11.536;2023-05-19T08:05:12;8.82;;;4.47;;
25069;SDS011;13064;48.162;11.536;2023-05-19T08:07:40;12.15;;;4.70;;
25069;SDS011;13064;48.162;11.536;2023-05-19T08:10:08;11.20;;;5.05;;
25069;SDS011;13064;48.162;11.536;2023-05-19T08:12:36;9.55;;;5.25;;
25069;SDS011;13064;48.162;11.536;2023-05-19T08:15:03;8.77;;;4.75;;
25069;SDS011;13064;48.162;11.536;2023-05-19T08:17:31;11.05;;;4.63;;
25069;SDS011;13064;48.162;11.536;2023-05-19T08:19:59;8.30;;;5.15;;
25069;SDS011;13064;48.162;11.536;2023-05-19T08:22:27;7.57;;;4.50;;
25069;SDS011;13064;48.162;11.536;2023-05-19T08:24:54;8.45;;;4.32;;
25069;SDS011;13064;48.162;11.536;2023-05-19T08:27:24;10.70;;;4.97;;
25069;SDS011;13064;48.162;11.536;2023-05-19T08:29:53;9.55;;;4.50;;
25069;SDS011;13064;48.162;11.536;2023-05-19T08:32:22;12.70;;;4.88;;
25069;SDS011;13064;48.162;11.536;2023-05-19T08:34:50;6.47;;;4.70;;
25069;SDS011;13064;48.162;11.536;2023-05-19T08:37:17;8.40;;;4.72;;
25069;SDS011;13064;48.162;11.536;2023-05-19T08:39:45;8.65;;;4.47;;
25069;SDS011;13064;48.162;11.536;2023-05-19T08:42:13;10.88;;;5.10;;
25069;SDS011;13064;48.162;11.536;2023-05-19T08:44:41;9.05;;;4.55;;
25069;SDS011;13064;48.162;11.536;2023-05-19T08:47:09;9.38;;;5.07;;
25069;SDS011;13064;48.162;11.536;2023-05-19T08:49:43;15.52;;;4.68;;
25069;SDS011;13064;48.162;11.536;2023-05-19T08:52:31;9.13;;;4.75;;
25069;SDS011;13064;48.162;11.536;2023-05-19T08:55:08;6.85;;;4.82;;
25069;SDS011;13064;48.162;11.536;2023-05-19T08:57:36;8.82;;;4.30;;
25069;SDS011;13064;48.162;11.536;2023-05-19T09:00:04;9.48;;;4.80;;
25069;SDS011;13064;48.162;11.536;2023-05-19T09:02:37;11.63;;;4.20;;
25069;SDS011;13064;48.162;11.536;2023-05-19T09:05:25;11.02;;;4.50;;
25069;SDS011;13064;48.162;11.536;2023-05-19T09:07:53;8.07;;;4.82;;
25069;SDS011;13064;48.162;11.536;2023-05-19T09:10:21;7.25;;;4.28;;
25069;SDS011;13064;48.162;11.536;2023-05-19T09:12:48;8.10;;;5.18;;
25069;SDS011;13064;48.162;11.536;2023-05-19T09:15:17;6.78;;;4.60;;
25069;SDS011;13064;48.162;11.536;2023-05-19T09:17:45;8.60;;;4.93;;
25069;SDS011;13064;48.162;11.536;2023-05-19T09:20:16;7.95;;;5.07;;
25069;SDS011;13064;48.162;11.536;2023-05-19T09:22:43;9.02;;;4.88;;
25069;SDS011;13064;48.162;11.536;2023-05-19T09:25:16;9.18;;;4.22;;
25069;SDS011;13064;48.162;11.536;2023-05-19T09:27:45;12.63;;;4.40;;
25069;SDS011;13064;48.162;11.536;2023-05-19T09:30:17;7.57;;;4.60;;
25069;SDS011;13064;48.162;11.536;2023-05-19T09:32:45;7.45;;;4.75;;
25069;SDS011;13064;48.162;11.536;2023-05-19T09:35:13;8.05;;;4.80;;
25069;SDS011;13064;48.162;11.536;2023-05-19T09:37:46;9.00;;;4.18;;
25069;SDS011;13064;48.162;11.536;2023-05-19T09:40:14;8.77;;;4.30;;
25069;SDS011;13064;48.162;11.536;2023-05-19T09:42:41;6.03;;;3.88;;
25069;SDS011;13064;48.162;11.536;2023-05-19T09:45:09;10.40;;;4.60;;
25069;SDS011;13064;48.162;11.536;2023-05-19T09:47:40;8.13;;;4.53;;
25069;SDS011;13064;48.162;11.536;2023-05-19T09:50:08;7.45;;;4.55;;
25069;SDS011;13064;48.162;11.536;2023-05-19T09:52:37;7.03;;;4.55;;
25069;SDS011;13064;48.162;11.536;2023-05-19T09:55:07;12.73;;;4.72;;
25069;SDS011;13064;48.162;11.536;2023-05-19T09:57:36;9.05;;;4.38;;
25069;SDS011;13064;48.162;11.536;2023-05-19T10:00:07;7.05;;;4.75;;
25069;SDS011;13064;48.162;11.536;2023-05-19T10:02:41;9.52;;;4.60;;
25069;SDS011;13064;48.162;11.536;2023-05-19T10:05:12;7.88;;;5.13;;
25069;SDS011;13064;48.162;11.536;2023-05-19T10:07:43;8.70;;;4.70;;
25069;SDS011;13064;48.162;11.536;2023-05-19T10:10:11;9.23;;;5.65;;
25069;SDS011;13064;48.162;11.536;2023-05-19T10:12:39;7.75;;;5.13;;
25069;SDS011;13064;48.162;11.536;2023-05-19T10:15:08;7.50;;;4.65;;
25069;SDS011;13064;48.162;11.536;2023-05-19T10:17:40;7.50;;;4.53;;
25069;SDS011;13064;48.162;11.536;2023-05-19T10:20:08;6.70;;;5.10;;
25069;SDS011;13064;48.162;11.536;2023-05-19T10:22:37;6.88;;;4.95;;
25069;SDS011;13064;48.162;11.536;2023-05-19T10:25:05;8.18;;;5.10;;
25069;SDS011;13064;48.162;11.536;2023-05-19T10:27:37;9.88;;;5.60;;
25069;SDS011;13064;48.162;11.536;2023-05-19T10:30:07;8.18;;;4.88;;
25069;SDS011;13064;48.162;11.536;2023-05-19T10:32:40;9.82;;;6.20;;
25069;SDS011;13064;48.162;11.536;2023-05-19T10:43:33;7.55;;;5.72;;
25069;SDS011;13064;48.162;11.536;2023-05-19T10:46:02;7.68;;;5.57;;
25069;SDS011;13064;48.162;11.536;2023-05-19T10:48:32;8.30;;;5.70;;
25069;SDS011;13064;48.162;11.536;2023-05-19T10:51:02;9.43;;;5.68;;
25069;SDS011;13064;48.162;11.536;2023-05-19T10:53:32;10.18;;;6.45;;
25069;SDS011;13064;48.162;11.536;2023-05-19T10:56:01;9.82;;;5.95;;
25069;SDS011;13064;48.162;11.536;2023-05-19T11:01:07;11.77;;;6.15;;
25069;SDS011;13064;48.162;11.536;2023-05-19T11:03:43;8.13;;;6.30;;
25069;SDS011;13064;48.162;11.536;2023-05-19T11:08:45;9.40;;;5.93;;
25069;SDS011;13064;48.162;11.536;2023-05-19T11:11:16;10.27;;;5.30;;
25069;SDS011;13064;48.162;11.536;2023-05-19T11:13:47;9.82;;;5.82;;
25069;SDS011;13064;48.162;11.536;2023-05-19T11:16:17;7.80;;;5.70;;
25069;SDS011;13064;48.162;11.536;2023-05-19T11:18:48;7.73;;;6.20;;
25069;SDS011;13064;48.162;11.536;2023-05-19T11:21:18;9.40;;;5.75;;
25069;SDS011;13064;48.162;11.536;2023-05-19T11:23:46;7.10;;;6.18;;
25069;SDS011;13064;48.162;11.536;2023-05-19T11:26:13;9.82;;;6.65;;
25069;SDS011;13064;48.162;11.536;2023-05-19T11:28:41;10.93;;;6.03;;
25069;SDS011;13064;48.162;11.536;2023-05-19T11:31:09;9.40;;;6.10;;
25069;SDS011;13064;48.162;11.536;2023-05-19T11:33:37;11.13;;;6.70;;
25069;SDS011;13064;48.162;11.536;2023-05-19T11:36:05;13.77;;;6.00;;
25069;SDS011;13064;48.162;11.536;2023-05-19T11:38:34;11.18;;;6.93;;
25069;SDS011;13064;48.162;11.536;2023-05-19T11:41:02;8.35;;;5.95;;
25069;SDS011;13064;48.162;11.536;2023-05-19T11:43:30;10.10;;;6.43;;
25069;SDS011;13064;48.162;11.536;2023-05-19T11:45:57;9.25;;;6.75;;
25069;SDS011;13064;48.162;11.536;2023-05-19T11:48:25;9.52;;;6.32;;
25069;SDS011;13064;48.162;11.536;2023-05-19T11:50:53;9.75;;;6.10;;
25069;SDS011;13064;48.162;11.536;2023-05-19T11:53:22;12.45;;;6.13;;
25069;SDS011;13064;48.162;11.536;2023-05-19T11:55:50;7.22;;;5.75;;
25069;SDS011;13064;48.162;11.536;2023-05-19T11:58:18;7.53;;;5.43;;
25069;SDS011;13064;48.162;11.536;2023-05-19T12:00:52;9.55;;;5.90;;
25069;SDS011;13064;48.162;11.536;2023-05-19T12:03:20;12.25;;;6.78;;
25069;SDS011;13064;48.162;11.536;2023-05-19T12:05:48;8.00;;;6.35;;
25069;SDS011;13064;48.162;11.536;2023-05-19T12:08:16;11.93;;;6.32;;
25069;SDS011;13064;48.162;11.536;2023-05-19T12:10:46;10.88;;;6.50;;
25069;SDS011;13064;48.162;11.536;2023-05-19T12:13:18;11.60;;;7.07;;
25069;SDS011;13064;48.162;11.536;2023-05-19T12:15:46;8.23;;;6.75;;
25069;SDS011;13064;48.162;11.536;2023-05-19T12:18:14;8.15;;;7.00;;
25069;SDS011;13064;48.162;11.536;2023-05-19T12:20:41;13.52;;;8.10;;
25069;SDS011;13064;48.162;11.536;2023-05-19T12:23:09;9.38;;;7.30;;
25069;SDS011;13064;48.162;11.536;2023-05-19T12:25:37;11.77;;;7.68;;
25069;SDS011;13064;48.162;11.536;2023-05-19T12:28:04;9.77;;;6.78;;
25069;SDS011;13064;48.162;11.536;2023-05-19T12:30:33;12.20;;;7.25;;
25069;SDS011;13064;48.162;11.536;2023-05-19T12:33:01;11.52;;;7.35;;
25069;SDS011;13064;48.162;11.536;2023-05-19T12:35:30;16.85;;;8.90;;
25069;SDS011;13064;48.162;11.536;2023-05-19T12:38:07;12.48;;;7.75;;
25069;SDS011;13064;48.162;11.536;2023-05-19T12:40:35;11.55;;;8.02;;
25069;SDS011;13064;48.162;11.536;2023-05-19T12:43:07;12.63;;;7.75;;
25069;SDS011;13064;48.162;11.536;2023-05-19T12:45:47;11.85;;;7.15;;
25069;SDS011;13064;48.162;11.536;2023-05-19T12:48:15;10.70;;;7.43;;
25069;SDS011;13064;48.162;11.536;2023-05-19T12:50:43;12.95;;;7.68;;
25069;SDS011;13064;48.162;11.536;2023-05-19T12:53:10;11.80;;;7.13;;
25069;SDS011;13064;48.162;11.536;2023-05-19T12:55:39;9.60;;;6.97;;
25069;SDS011;13064;48.162;11.536;2023-05-19T12:58:10;13.07;;;7.70;;
25069;SDS011;13064;48.162;11.536;2023-05-19T13:00:41;13.48;;;7.47;;
25069;SDS011;13064;48.162;11.536;2023-05-19T13:03:14;10.18;;;7.22;;
25069;SDS011;13064;48.162;11.536;2023-05-19T13:05:44;13.05;;;7.30;;
25069;SDS011;13064;48.162;11.536;2023-05-19T13:08:13;9.20;;;7.20;;
25069;SDS011;13064;48.162;11.536;2023-05-19T13:10:41;10.68;;;7.50;;
25069;SDS011;13064;48.162;11.536;2023-05-19T13:13:09;7.80;;;6.18;;
25069;SDS011;13064;48.162;11.536;2023-05-19T13:15:39;11.48;;;6.45;;
25069;SDS011;13064;48.162;11.536;2023-05-19T13:18:07;12.00;;;6.72;;
25069;SDS011;13064;48.162;11.536;2023-05-19T13:20:36;10.98;;;6.53;;
25069;SDS011;13064;48.162;11.536;2023-05-19T13:23:04;9.20;;;5.95;;
25069;SDS011;13064;48.162;11.536;2023-05-19T13:25:32;9.23;;;6.57;;
25069;SDS011;13064;48.162;11.536;2023-05-19T13:28:01;9.00;;;6.13;;
25069;SDS011;13064;48.162;11.536;2023-05-19T13:30:31;8.68;;;6.55;;
25069;SDS011;13064;48.162;11.536;2023-05-19T13:33:00;9.18;;;6.18;;
25069;SDS011;13064;48.162;11.536;2023-05-19T13:35:27;9.77;;;6.50;;
25069;SDS011;13064;48.162;11.536;2023-05-19T13:37:56;9.52;;;6.20;;
25069;SDS011;13064;48.162;11.536;2023-05-19T13:40:23;9.82;;;6.32;;
25069;SDS011;13064;48.162;11.536;2023-05-19T13:42:53;9.20;;;6.82;;
25069;SDS011;13064;48.162;11.536;2023-05-19T13:45:21;9.90;;;6.78;;
25069;SDS011;13064;48.162;11.536;2023-05-19T13:47:48;11.93;;;7.00;;
25069;SDS011;13064;48.162;11.536;2023-05-19T13:50:16;11.15;;;7.15;;
25069;SDS011;13064;48.162;11.536;2023-05-19T13:52:44;10.80;;;6.97;;
25069;SDS011;13064;48.162;11.536;2023-05-19T13:55:12;11.32;;;6.40;;
25069;SDS011;13064;48.162;11.536;2023-05-19T13:57:39;8.55;;;6.30;;
25069;SDS011;13064;48.162;11.536;2023-05-19T14:00:10;10.57;;;6.40;;
25069;SDS011;13064;48.162;11.536;2023-05-19T14:02:37;8.68;;;6.63;;
25069;SDS011;13064;48.162;11.536;2023-05-19T14:05:06;9.25;;;6.03;;
25069;SDS011;13064;48.162;11.536;2023-05-19T14:07:34;8.23;;;5.93;;
25069;SDS011;13064;48.162;11.536;2023-05-19T14:10:02;9.23;;;6.13;;
25069;SDS011;13064;48.162;11.536;2023-05-19T14:12:31;10.65;;;6.35;;
25069;SDS011;13064;48.162;11.536;2023-05-19T14:15:19;9.65;;;6.28;;
25069;SDS011;13064;48.162;11.536;2023-05-19T14:17:46;9.52;;;6.38;;
25069;SDS011;13064;48.162;11.536;2023-05-19T14:20:14;8.10;;;5.85;;
25069;SDS011;13064;48.162;11.536;2023-05-19T14:22:42;10.10;;;6.13;;
25069;SDS011;13064;48.162;11.536;2023-05-19T14:25:10;10.63;;;5.88;;
25069;SDS011;13064;48.162;11.536;2023-05-19T14:27:37;10.15;;;6.45;;
25069;SDS011;13064;48.162;11.536;2023-05-19T14:30:06;8.55;;;6.13;;
25069;SDS011;13064;48.162;11.536;2023-05-19T14:32:34;8.88;;;5.97;;
25069;SDS011;13064;48.162;11.536;2023-05-19T14:35:02;9.82;;;6.25;;
25069;SDS011;13064;48.162;11.536;2023-05-19T14:37:29;8.38;;;5.78;;
25069;SDS011;13064;48.162;11.536;2023-05-19T14:39:58;7.75;;;6.20;;
25069;SDS011;13064;48.162;11.536;2023-05-19T14:42:25;8.77;;;6.05;;
25069;SDS011;13064;48.162;11.536;2023-05-19T14:44:53;9.32;;;6.22;;
25069;SDS011;13064;48.162;11.536;2023-05-19T14:47:21;8.15;;;5.50;;
25069;SDS011;13064;48.162;11.536;2023-05-19T14:49:50;6.72;;;5.72;;
25069;SDS011;13064;48.162;11.536;2023-05-19T14:52:18;8.05;;;6.05;;
25069;SDS011;13064;48.162;11.536;2023-05-19T14:54:46;9.00;;;5.57;;
25069;SDS011;13064;48.162;11.536;2023-05-19T14:57:13;8.60;;;6.00;;
25069;SDS011;13064;48.162;11.536;2023-05-19T14:59:42;8.77;;;6.13;;
25069;SDS011;13064;48.162;11.536;2023-05-19T15:02:09;7.80;;;5.47;;